sensor_id;sensor_type;location;lat;lon;timestamp;temperature;humidity
13742;DHT22;8461;52.356;10.704;2023-03-14T00:00:29;9.80;99.90
13742;DHT22;8461;52.356;10.704;2023-03-14T00:02:55;9.80;99.90
13742;DHT22;8461;52.356;10.704;2023-03-14T00:05:20;9.70;99.90
13742;DHT22;8461;52.356;10.704;2023-03-14T00:07:46;9.70;99.90
13742;DHT22;8461;52.356;10.704;2023-03-14T00:10:14;9.70;99.90
13742;DHT22;8461;52.356;10.704;2023-03-14T00:12:40;9.70;99.90
13742;DHT22;8461;52.356;10.704;2023-03-14T00:15:06;9.70;99.90
13742;DHT22;8461;52.356;10.704;2023-03-14T00:17:33;9.70;99.90
13742;DHT22;8461;52.356;10.704;2023-03-14T00:19:59;9.70;99.90
13742;DHT22;8461;52.356;10.704;2023-03-14T00:22:34;9.70;99.90
13742;DHT22;8461;52.356;10.704;2023-03-14T00:25:00;9.70;99.90
13742;DHT22;8461;52.356;10.704;2023-03-14T00:27:26;9.70;99.90
13742;DHT22;8461;52.356;10.704;2023-03-14T00:29:52;9.80;99.90
13742;DHT22;8461;52.356;10.704;2023-03-14T00:32:17;9.80;99.90
13742;DHT22;8461;52.356;10.704;2023-03-14T00:34:43;9.80;99.90
13742;DHT22;8461;52.356;10.704;2023-03-14T00:37:08;9.80;99.90
13742;DHT22;8461;52.356;10.704;2023-03-14T00:39:34;9.80;99.90
13742;DHT22;8461;52.356;10.704;2023-03-14T00:41:59;9.80;99.90
13742;DHT22;8461;52.356;10.704;2023-03-14T00:44:25;9.80;99.90
13742;DHT22;8461;52.356;10.704;2023-03-14T00:46:51;9.80;99.90
13742;DHT22;8461;52.356;10.704;2023-03-14T00:49:16;9.80;99.90
13742;DHT22;8461;52.356;10.704;2023-03-14T00:51:42;9.80;99.90
13742;DHT22;8461;52.356;10.704;2023-03-14T00:54:07;9.70;99.90
13742;DHT22;8461;52.356;10.704;2023-03-14T00:56:33;9.70;99.90
13742;DHT22;8461;52.356;10.704;2023-03-14T00:58:58;9.70;99.90
13742;DHT22;8461;52.356;10.704;2023-03-14T01:01:24;9.90;99.90
13742;DHT22;8461;52.356;10.704;2023-03-14T01:03:54;9.90;99.90
13742;DHT22;8461;52.356;10.704;2023-03-14T01:06:25;9.90;99.90
13742;DHT22;8461;52.356;10.704;2023-03-14T01:08:52;10.10;99.90
13742;DHT22;8461;52.356;10.704;2023-03-14T01:11:24;10.20;99.90
13742;DHT22;8461;52.356;10.704;2023-03-14T01:13:51;10.30;99.90
13742;DHT22;8461;52.356;10.704;2023-03-14T01:16:18;10.30;99.90
13742;DHT22;8461;52.356;10.704;2023-03-14T01:18:45;10.30;99.90
13742;DHT22;8461;52.356;10.704;2023-03-14T01:21:13;10.30;99.90
13742;DHT22;8461;52.356;10.704;2023-03-14T01:23:39;10.30;99.90
13742;DHT22;8461;52.356;10.704;2023-03-14T01:26:09;10.40;99.90
13742;DHT22;8461;52.356;10.704;2023-03-14T01:28:35;10.40;99.90
13742;DHT22;8461;52.356;10.704;2023-03-14T01:31:05;10.30;99.90
13742;DHT22;8461;52.356;10.704;2023-03-14T01:33:31;10.30;99.90
13742;DHT22;8461;52.356;10.704;2023-03-14T01:35:57;10.30;99.90
13742;DHT22;8461;52.356;10.704;2023-03-14T01:38:22;10.30;99.90
13742;DHT22;8461;52.356;10.704;2023-03-14T01:40:48;10.30;99.90
13742;DHT22;8461;52.356;10.704;2023-03-14T01:43:17;10.20;99.90
13742;DHT22;8461;52.356;10.704;2023-03-14T01:48:40;10.30;99.90
13742;DHT22;8461;52.356;10.704;2023-03-14T01:51:12;10.20;99.90
13742;DHT22;8461;52.356;10.704;2023-03-14T01:53:39;10.10;99.90
13742;DHT22;8461;52.356;10.704;2023-03-14T01:56:09;10.30;99.90
13742;DHT22;8461;52.356;10.704;2023-03-14T01:58:37;10.40;99.90
13742;DHT22;8461;52.356;10.704;2023-03-14T02:01:04;10.50;99.90
13742;DHT22;8461;52.356;10.704;2023-03-14T02:03:35;10.60;99.90
13742;DHT22;8461;52.356;10.704;2023-03-14T02:06:06;10.60;99.90
13742;DHT22;8461;52.356;10.704;2023-03-14T02:08:33;10.80;99.90
13742;DHT22;8461;52.356;10.704;2023-03-14T02:11:00;10.80;99.90
13742;DHT22;8461;52.356;10.704;2023-03-14T02:13:26;10.70;99.90
13742;DHT22;8461;52.356;10.704;2023-03-14T02:15:52;10.80;99.90
13742;DHT22;8461;52.356;10.704;2023-03-14T02:18:18;10.80;99.90
13742;DHT22;8461;52.356;10.704;2023-03-14T02:21:00;10.70;99.90
13742;DHT22;8461;52.356;10.704;2023-03-14T02:26:03;11.00;99.90
13742;DHT22;8461;52.356;10.704;2023-03-14T02:28:31;11.00;99.90
13742;DHT22;8461;52.356;10.704;2023-03-14T02:30:56;10.90;99.90
13742;DHT22;8461;52.356;10.704;2023-03-14T02:33:23;10.80;99.90
13742;DHT22;8461;52.356;10.704;2023-03-14T02:35:58;10.80;99.90
13742;DHT22;8461;52.356;10.704;2023-03-14T02:41:11;10.90;99.90
13742;DHT22;8461;52.356;10.704;2023-03-14T02:43:37;10.90;99.90
13742;DHT22;8461;52.356;10.704;2023-03-14T02:46:05;10.80;99.90
13742;DHT22;8461;52.356;10.704;2023-03-14T02:48:39;10.80;99.90
13742;DHT22;8461;52.356;10.704;2023-03-14T02:51:06;10.80;99.90
13742;DHT22;8461;52.356;10.704;2023-03-14T02:53:35;10.70;99.90
13742;DHT22;8461;52.356;10.704;2023-03-14T02:56:01;10.70;99.90
13742;DHT22;8461;52.356;10.704;2023-03-14T02:58:26;10.70;99.90
13742;DHT22;8461;52.356;10.704;2023-03-14T03:00:52;10.60;99.90
13742;DHT22;8461;52.356;10.704;2023-03-14T03:03:18;10.70;99.90
13742;DHT22;8461;52.356;10.704;2023-03-14T03:05:48;10.60;99.90
13742;DHT22;8461;52.356;10.704;2023-03-14T03:08:13;10.60;99.90
13742;DHT22;8461;52.356;10.704;2023-03-14T03:10:39;10.60;99.90
13742;DHT22;8461;52.356;10.704;2023-03-14T03:13:05;10.50;99.90
13742;DHT22;8461;52.356;10.704;2023-03-14T03:15:31;10.50;99.90
13742;DHT22;8461;52.356;10.704;2023-03-14T03:17:56;10.40;99.90
13742;DHT22;8461;52.356;10.704;2023-03-14T03:20:22;10.40;99.90
13742;DHT22;8461;52.356;10.704;2023-03-14T03:22:47;10.40;99.90
13742;DHT22;8461;52.356;10.704;2023-03-14T03:25:15;10.40;99.90
13742;DHT22;8461;52.356;10.704;2023-03-14T03:27:40;10.40;99.90
13742;DHT22;8461;52.356;10.704;2023-03-14T03:30:07;10.40;99.90
13742;DHT22;8461;52.356;10.704;2023-03-14T03:32:33;10.40;99.90
13742;DHT22;8461;52.356;10.704;2023-03-14T03:34:59;10.40;99.90
13742;DHT22;8461;52.356;10.704;2023-03-14T03:37:25;10.40;99.90
13742;DHT22;8461;52.356;10.704;2023-03-14T03:39:51;10.30;99.90
13742;DHT22;8461;52.356;10.704;2023-03-14T03:42:17;10.40;99.90
13742;DHT22;8461;52.356;10.704;2023-03-14T03:44:43;10.40;99.90
13742;DHT22;8461;52.356;10.704;2023-03-14T03:47:09;10.40;99.90
13742;DHT22;8461;52.356;10.704;2023-03-14T03:49:34;10.30;99.90
13742;DHT22;8461;52.356;10.704;2023-03-14T03:52:00;10.30;99.90
13742;DHT22;8461;52.356;10.704;2023-03-14T03:54:26;10.20;99.90
13742;DHT22;8461;52.356;10.704;2023-03-14T03:56:52;10.10;99.90
13742;DHT22;8461;52.356;10.704;2023-03-14T03:59:18;10.00;99.90
13742;DHT22;8461;52.356;10.704;2023-03-14T04:01:43;10.20;99.90
13742;DHT22;8461;52.356;10.704;2023-03-14T04:04:09;10.20;99.90
13742;DHT22;8461;52.356;10.704;2023-03-14T04:06:34;10.10;99.90
13742;DHT22;8461;52.356;10.704;2023-03-14T04:09:00;10.10;99.90
13742;DHT22;8461;52.356;10.704;2023-03-14T04:11:26;10.10;99.90
13742;DHT22;8461;52.356;10.704;2023-03-14T04:13:52;10.10;99.90
13742;DHT22;8461;52.356;10.704;2023-03-14T04:16:23;10.10;99.90
13742;DHT22;8461;52.356;10.704;2023-03-14T04:18:49;10.10;99.90
13742;DHT22;8461;52.356;10.704;2023-03-14T04:21:15;10.00;99.90
13742;DHT22;8461;52.356;10.704;2023-03-14T04:23:41;10.00;99.90
13742;DHT22;8461;52.356;10.704;2023-03-14T04:26:06;10.00;99.90
13742;DHT22;8461;52.356;10.704;2023-03-14T04:28:32;10.00;99.90
13742;DHT22;8461;52.356;10.704;2023-03-14T04:30:57;10.10;99.90
13742;DHT22;8461;52.356;10.704;2023-03-14T04:33:23;10.00;99.90
13742;DHT22;8461;52.356;10.704;2023-03-14T04:35:52;10.00;99.90
13742;DHT22;8461;52.356;10.704;2023-03-14T04:38:18;9.90;99.90
13742;DHT22;8461;52.356;10.704;2023-03-14T04:40:44;9.90;99.90
13742;DHT22;8461;52.356;10.704;2023-03-14T04:43:10;9.90;99.90
13742;DHT22;8461;52.356;10.704;2023-03-14T04:45:36;10.00;99.90
13742;DHT22;8461;52.356;10.704;2023-03-14T04:48:02;9.90;99.90
13742;DHT22;8461;52.356;10.704;2023-03-14T04:50:27;10.00;99.90
13742;DHT22;8461;52.356;10.704;2023-03-14T04:52:53;10.00;99.90
13742;DHT22;8461;52.356;10.704;2023-03-14T04:55:18;10.00;99.90
13742;DHT22;8461;52.356;10.704;2023-03-14T04:57:44;10.10;99.90
13742;DHT22;8461;52.356;10.704;2023-03-14T05:00:10;10.10;99.90
13742;DHT22;8461;52.356;10.704;2023-03-14T05:02:36;10.10;99.90
13742;DHT22;8461;52.356;10.704;2023-03-14T05:05:01;10.10;99.90
13742;DHT22;8461;52.356;10.704;2023-03-14T05:07:27;10.10;99.90
13742;DHT22;8461;52.356;10.704;2023-03-14T05:09:52;10.20;99.90
13742;DHT22;8461;52.356;10.704;2023-03-14T05:12:19;10.10;99.90
13742;DHT22;8461;52.356;10.704;2023-03-14T05:14:44;10.00;99.90
13742;DHT22;8461;52.356;10.704;2023-03-14T05:17:10;9.90;99.90
13742;DHT22;8461;52.356;10.704;2023-03-14T05:19:36;9.90;99.90
13742;DHT22;8461;52.356;10.704;2023-03-14T05:22:02;9.90;99.90
13742;DHT22;8461;52.356;10.704;2023-03-14T05:24:28;9.80;99.90
13742;DHT22;8461;52.356;10.704;2023-03-14T05:26:53;9.80;99.90
13742;DHT22;8461;52.356;10.704;2023-03-14T05:29:19;9.70;99.90
13742;DHT22;8461;52.356;10.704;2023-03-14T05:31:44;9.60;99.90
13742;DHT22;8461;52.356;10.704;2023-03-14T05:34:10;9.60;99.90
13742;DHT22;8461;52.356;10.704;2023-03-14T05:36:35;9.50;99.90
13742;DHT22;8461;52.356;10.704;2023-03-14T05:39:01;9.50;99.90
13742;DHT22;8461;52.356;10.704;2023-03-14T05:41:27;9.60;99.90
13742;DHT22;8461;52.356;10.704;2023-03-14T05:43:53;9.60;99.90
13742;DHT22;8461;52.356;10.704;2023-03-14T05:46:18;9.50;99.90
13742;DHT22;8461;52.356;10.704;2023-03-14T05:48:44;9.50;99.90
13742;DHT22;8461;52.356;10.704;2023-03-14T05:51:09;9.60;99.90
13742;DHT22;8461;52.356;10.704;2023-03-14T05:53:35;9.50;99.90
13742;DHT22;8461;52.356;10.704;2023-03-14T05:56:00;9.50;99.90
13742;DHT22;8461;52.356;10.704;2023-03-14T05:58:26;9.50;99.90
13742;DHT22;8461;52.356;10.704;2023-03-14T06:00:51;9.50;99.90
13742;DHT22;8461;52.356;10.704;2023-03-14T06:03:17;9.50;99.90
13742;DHT22;8461;52.356;10.704;2023-03-14T06:05:42;9.50;99.90
13742;DHT22;8461;52.356;10.704;2023-03-14T06:08:08;9.50;99.90
13742;DHT22;8461;52.356;10.704;2023-03-14T06:10:35;9.50;99.90
13742;DHT22;8461;52.356;10.704;2023-03-14T06:13:00;9.40;99.90
13742;DHT22;8461;52.356;10.704;2023-03-14T06:15:26;9.50;99.90
13742;DHT22;8461;52.356;10.704;2023-03-14T06:17:56;9.40;99.90
13742;DHT22;8461;52.356;10.704;2023-03-14T06:20:22;9.40;99.90
13742;DHT22;8461;52.356;10.704;2023-03-14T06:22:48;9.40;99.90
13742;DHT22;8461;52.356;10.704;2023-03-14T06:25:13;9.50;99.90
13742;DHT22;8461;52.356;10.704;2023-03-14T06:27:39;9.50;99.90
13742;DHT22;8461;52.356;10.704;2023-03-14T06:30:05;9.50;99.90
13742;DHT22;8461;52.356;10.704;2023-03-14T06:32:31;9.60;99.90
13742;DHT22;8461;52.356;10.704;2023-03-14T06:34:56;9.60;99.90
13742;DHT22;8461;52.356;10.704;2023-03-14T06:37:29;9.70;99.90
13742;DHT22;8461;52.356;10.704;2023-03-14T06:39:55;9.70;99.90
13742;DHT22;8461;52.356;10.704;2023-03-14T06:42:21;9.70;99.90
13742;DHT22;8461;52.356;10.704;2023-03-14T06:44:47;9.70;99.90
13742;DHT22;8461;52.356;10.704;2023-03-14T06:47:13;9.70;99.90
13742;DHT22;8461;52.356;10.704;2023-03-14T06:49:38;9.70;99.90
13742;DHT22;8461;52.356;10.704;2023-03-14T06:52:04;9.70;99.90
13742;DHT22;8461;52.356;10.704;2023-03-14T06:54:30;9.80;99.90
13742;DHT22;8461;52.356;10.704;2023-03-14T06:56:55;9.80;99.90
13742;DHT22;8461;52.356;10.704;2023-03-14T06:59:21;9.90;99.90
13742;DHT22;8461;52.356;10.704;2023-03-14T07:01:46;10.00;99.90
13742;DHT22;8461;52.356;10.704;2023-03-14T07:04:13;10.00;99.90
13742;DHT22;8461;52.356;10.704;2023-03-14T07:06:39;10.10;99.90
13742;DHT22;8461;52.356;10.704;2023-03-14T07:09:05;10.20;99.90
13742;DHT22;8461;52.356;10.704;2023-03-14T07:11:30;10.30;99.90
13742;DHT22;8461;52.356;10.704;2023-03-14T07:13:56;10.30;99.90
13742;DHT22;8461;52.356;10.704;2023-03-14T07:16:22;10.30;99.90
13742;DHT22;8461;52.356;10.704;2023-03-14T07:18:47;10.40;99.90
13742;DHT22;8461;52.356;10.704;2023-03-14T07:21:14;10.40;99.90
13742;DHT22;8461;52.356;10.704;2023-03-14T07:23:40;10.40;99.90
13742;DHT22;8461;52.356;10.704;2023-03-14T07:26:06;10.50;99.90
13742;DHT22;8461;52.356;10.704;2023-03-14T07:28:31;10.70;99.90
13742;DHT22;8461;52.356;10.704;2023-03-14T07:30:57;10.70;99.90
13742;DHT22;8461;52.356;10.704;2023-03-14T07:33:22;10.70;99.90
13742;DHT22;8461;52.356;10.704;2023-03-14T07:35:48;10.70;99.90
13742;DHT22;8461;52.356;10.704;2023-03-14T07:38:15;10.80;99.90
13742;DHT22;8461;52.356;10.704;2023-03-14T07:40:41;11.00;99.90
13742;DHT22;8461;52.356;10.704;2023-03-14T07:43:07;11.20;99.90
13742;DHT22;8461;52.356;10.704;2023-03-14T07:45:32;11.10;99.90
13742;DHT22;8461;52.356;10.704;2023-03-14T07:47:58;10.90;99.90
13742;DHT22;8461;52.356;10.704;2023-03-14T07:50:25;10.90;99.90
13742;DHT22;8461;52.356;10.704;2023-03-14T07:52:51;11.00;99.90
13742;DHT22;8461;52.356;10.704;2023-03-14T07:55:16;11.00;99.90
13742;DHT22;8461;52.356;10.704;2023-03-14T07:57:42;11.10;99.90
13742;DHT22;8461;52.356;10.704;2023-03-14T08:00:08;11.10;99.90
13742;DHT22;8461;52.356;10.704;2023-03-14T08:02:34;11.00;99.90
13742;DHT22;8461;52.356;10.704;2023-03-14T08:05:01;11.00;99.90
13742;DHT22;8461;52.356;10.704;2023-03-14T08:07:27;11.10;99.90
13742;DHT22;8461;52.356;10.704;2023-03-14T08:09:52;11.20;99.90
13742;DHT22;8461;52.356;10.704;2023-03-14T08:12:18;11.40;99.90
13742;DHT22;8461;52.356;10.704;2023-03-14T08:14:43;11.40;99.90
13742;DHT22;8461;52.356;10.704;2023-03-14T08:17:09;11.60;99.90
13742;DHT22;8461;52.356;10.704;2023-03-14T08:19:34;11.70;99.90
13742;DHT22;8461;52.356;10.704;2023-03-14T08:22:00;11.50;99.90
13742;DHT22;8461;52.356;10.704;2023-03-14T08:24:26;11.30;99.90
13742;DHT22;8461;52.356;10.704;2023-03-14T08:26:51;11.40;99.90
13742;DHT22;8461;52.356;10.704;2023-03-14T08:29:17;11.60;99.90
13742;DHT22;8461;52.356;10.704;2023-03-14T08:31:42;11.70;99.90
13742;DHT22;8461;52.356;10.704;2023-03-14T08:34:08;11.70;99.90
13742;DHT22;8461;52.356;10.704;2023-03-14T08:36:34;11.70;99.90
13742;DHT22;8461;52.356;10.704;2023-03-14T08:38:59;11.70;99.90
13742;DHT22;8461;52.356;10.704;2023-03-14T08:41:25;11.80;99.90
13742;DHT22;8461;52.356;10.704;2023-03-14T08:43:50;11.80;99.90
13742;DHT22;8461;52.356;10.704;2023-03-14T08:46:18;12.00;99.90
13742;DHT22;8461;52.356;10.704;2023-03-14T08:48:44;11.90;99.90
13742;DHT22;8461;52.356;10.704;2023-03-14T08:51:11;11.90;99.90
13742;DHT22;8461;52.356;10.704;2023-03-14T08:53:38;11.90;99.90
13742;DHT22;8461;52.356;10.704;2023-03-14T08:56:04;11.90;99.90
13742;DHT22;8461;52.356;10.704;2023-03-14T08:58:31;11.80;99.90
13742;DHT22;8461;52.356;10.704;2023-03-14T09:00:57;11.80;99.90
13742;DHT22;8461;52.356;10.704;2023-03-14T09:03:23;11.80;99.90
13742;DHT22;8461;52.356;10.704;2023-03-14T09:05:50;11.80;99.90
13742;DHT22;8461;52.356;10.704;2023-03-14T09:08:15;11.80;99.90
13742;DHT22;8461;52.356;10.704;2023-03-14T09:10:42;11.80;99.90
13742;DHT22;8461;52.356;10.704;2023-03-14T09:13:08;11.70;99.90
13742;DHT22;8461;52.356;10.704;2023-03-14T09:15:33;11.60;99.90
13742;DHT22;8461;52.356;10.704;2023-03-14T09:17:59;11.60;99.90
13742;DHT22;8461;52.356;10.704;2023-03-14T09:20:25;11.40;99.90
13742;DHT22;8461;52.356;10.704;2023-03-14T09:22:50;11.30;99.90
13742;DHT22;8461;52.356;10.704;2023-03-14T09:25:16;11.40;99.90
13742;DHT22;8461;52.356;10.704;2023-03-14T09:27:41;11.50;99.90
13742;DHT22;8461;52.356;10.704;2023-03-14T09:30:08;11.50;99.90
13742;DHT22;8461;52.356;10.704;2023-03-14T09:32:34;11.40;99.90
13742;DHT22;8461;52.356;10.704;2023-03-14T09:34:59;11.30;99.90
13742;DHT22;8461;52.356;10.704;2023-03-14T09:37:25;11.20;99.90
13742;DHT22;8461;52.356;10.704;2023-03-14T09:39:50;11.00;99.90
13742;DHT22;8461;52.356;10.704;2023-03-14T09:42:22;10.90;99.90
13742;DHT22;8461;52.356;10.704;2023-03-14T09:44:59;10.80;99.90
13742;DHT22;8461;52.356;10.704;2023-03-14T09:47:26;10.70;99.90
13742;DHT22;8461;52.356;10.704;2023-03-14T09:49:52;10.70;99.90
13742;DHT22;8461;52.356;10.704;2023-03-14T09:52:23;10.70;99.90
13742;DHT22;8461;52.356;10.704;2023-03-14T09:54:56;10.70;99.90
13742;DHT22;8461;52.356;10.704;2023-03-14T09:57:26;10.80;99.90
13742;DHT22;8461;52.356;10.704;2023-03-14T09:59:56;10.90;99.90
13742;DHT22;8461;52.356;10.704;2023-03-14T10:02:24;11.10;99.90
13742;DHT22;8461;52.356;10.704;2023-03-14T10:04:52;11.20;99.90
13742;DHT22;8461;52.356;10.704;2023-03-14T10:07:27;11.30;99.90
13742;DHT22;8461;52.356;10.704;2023-03-14T10:09:53;11.20;99.90
13742;DHT22;8461;52.356;10.704;2023-03-14T10:12:19;11.20;99.90
13742;DHT22;8461;52.356;10.704;2023-03-14T10:14:48;11.10;99.90
13742;DHT22;8461;52.356;10.704;2023-03-14T10:17:15;11.30;99.90
13742;DHT22;8461;52.356;10.704;2023-03-14T10:22:19;11.50;99.90
13742;DHT22;8461;52.356;10.704;2023-03-14T10:24:56;11.70;99.90
13742;DHT22;8461;52.356;10.704;2023-03-14T10:27:30;12.00;99.90
13742;DHT22;8461;52.356;10.704;2023-03-14T10:30:03;12.20;99.90
13742;DHT22;8461;52.356;10.704;2023-03-14T10:32:37;12.40;99.90
13742;DHT22;8461;52.356;10.704;2023-03-14T10:38:10;12.90;99.90
13742;DHT22;8461;52.356;10.704;2023-03-14T10:40:40;12.90;99.90
13742;DHT22;8461;52.356;10.704;2023-03-14T10:43:13;12.90;99.90
13742;DHT22;8461;52.356;10.704;2023-03-14T10:45:42;12.80;99.90
13742;DHT22;8461;52.356;10.704;2023-03-14T10:48:19;12.90;99.90
13742;DHT22;8461;52.356;10.704;2023-03-14T10:53:20;12.80;99.90
13742;DHT22;8461;52.356;10.704;2023-03-14T10:55:45;12.60;99.90
13742;DHT22;8461;52.356;10.704;2023-03-14T10:58:26;12.30;99.90
13742;DHT22;8461;52.356;10.704;2023-03-14T11:01:02;12.20;99.90
13742;DHT22;8461;52.356;10.704;2023-03-14T11:03:32;12.10;99.90
13742;DHT22;8461;52.356;10.704;2023-03-14T11:06:23;12.00;99.90
13742;DHT22;8461;52.356;10.704;2023-03-14T11:09:02;11.70;99.90
13742;DHT22;8461;52.356;10.704;2023-03-14T11:11:32;11.60;99.90
13742;DHT22;8461;52.356;10.704;2023-03-14T11:16:45;11.70;99.90
13742;DHT22;8461;52.356;10.704;2023-03-14T11:25:12;12.00;99.90
13742;DHT22;8461;52.356;10.704;2023-03-14T11:30:34;12.30;99.90
13742;DHT22;8461;52.356;10.704;2023-03-14T11:33:13;12.30;99.90
13742;DHT22;8461;52.356;10.704;2023-03-14T11:38:34;12.10;99.90
13742;DHT22;8461;52.356;10.704;2023-03-14T11:41:02;12.10;99.90
13742;DHT22;8461;52.356;10.704;2023-03-14T11:43:42;12.00;99.90
13742;DHT22;8461;52.356;10.704;2023-03-14T11:46:27;11.80;99.90
13742;DHT22;8461;52.356;10.704;2023-03-14T11:51:46;11.80;99.90
13742;DHT22;8461;52.356;10.704;2023-03-14T11:54:34;12.00;99.90
13742;DHT22;8461;52.356;10.704;2023-03-14T11:57:11;12.20;99.90
13742;DHT22;8461;52.356;10.704;2023-03-14T12:08:18;12.20;99.90
13742;DHT22;8461;52.356;10.704;2023-03-14T12:10:52;12.10;99.90
13742;DHT22;8461;52.356;10.704;2023-03-14T12:13:19;12.10;99.90
13742;DHT22;8461;52.356;10.704;2023-03-14T12:16:54;12.10;99.90
13742;DHT22;8461;52.356;10.704;2023-03-14T12:18:54;12.00;99.90
13742;DHT22;8461;52.356;10.704;2023-03-14T12:21:20;11.90;99.90
13742;DHT22;8461;52.356;10.704;2023-03-14T12:23:53;11.70;99.90
13742;DHT22;8461;52.356;10.704;2023-03-14T12:26:28;11.40;99.90
13742;DHT22;8461;52.356;10.704;2023-03-14T12:29:15;10.70;99.90
13742;DHT22;8461;52.356;10.704;2023-03-14T12:31:46;8.30;99.90
13742;DHT22;8461;52.356;10.704;2023-03-14T12:49:53;6.90;99.90
13742;DHT22;8461;52.356;10.704;2023-03-14T12:52:33;6.80;99.90
13742;DHT22;8461;52.356;10.704;2023-03-14T12:55:24;6.70;99.90
13742;DHT22;8461;52.356;10.704;2023-03-14T13:01:01;6.30;99.90
13742;DHT22;8461;52.356;10.704;2023-03-14T13:03:49;6.10;99.90
13742;DHT22;8461;52.356;10.704;2023-03-14T13:06:54;5.90;99.90
13742;DHT22;8461;52.356;10.704;2023-03-14T13:11:55;5.60;99.90
13742;DHT22;8461;52.356;10.704;2023-03-14T13:14:22;5.60;99.90
13742;DHT22;8461;52.356;10.704;2023-03-14T13:16:48;5.60;99.90
13742;DHT22;8461;52.356;10.704;2023-03-14T13:19:29;5.50;99.90
13742;DHT22;8461;52.356;10.704;2023-03-14T13:22:05;5.30;99.90
13742;DHT22;8461;52.356;10.704;2023-03-14T13:24:34;5.20;99.90
13742;DHT22;8461;52.356;10.704;2023-03-14T13:27:00;5.00;99.90
13742;DHT22;8461;52.356;10.704;2023-03-14T13:29:30;5.00;99.90
13742;DHT22;8461;52.356;10.704;2023-03-14T13:31:58;5.00;99.90
13742;DHT22;8461;52.356;10.704;2023-03-14T13:34:34;5.10;99.90
13742;DHT22;8461;52.356;10.704;2023-03-14T13:37:00;5.00;99.90
13742;DHT22;8461;52.356;10.704;2023-03-14T13:39:27;4.90;99.90
13742;DHT22;8461;52.356;10.704;2023-03-14T13:41:58;4.50;99.90
13742;DHT22;8461;52.356;10.704;2023-03-14T13:44:39;4.30;99.90
13742;DHT22;8461;52.356;10.704;2023-03-14T13:47:10;4.20;99.90
13742;DHT22;8461;52.356;10.704;2023-03-14T13:49:38;4.20;99.90
13742;DHT22;8461;52.356;10.704;2023-03-14T13:52:28;4.20;99.90
13742;DHT22;8461;52.356;10.704;2023-03-14T13:54:55;4.30;99.90
13742;DHT22;8461;52.356;10.704;2023-03-14T13:57:22;4.30;99.90
13742;DHT22;8461;52.356;10.704;2023-03-14T14:00:16;4.20;99.90
13742;DHT22;8461;52.356;10.704;2023-03-14T14:02:42;4.00;99.90
13742;DHT22;8461;52.356;10.704;2023-03-14T14:05:10;4.00;99.90
13742;DHT22;8461;52.356;10.704;2023-03-14T14:07:36;3.90;99.90
13742;DHT22;8461;52.356;10.704;2023-03-14T14:10:04;3.90;99.90
13742;DHT22;8461;52.356;10.704;2023-03-14T14:12:31;3.90;99.90
13742;DHT22;8461;52.356;10.704;2023-03-14T14:15:02;3.90;99.90
13742;DHT22;8461;52.356;10.704;2023-03-14T14:17:39;3.90;99.90
13742;DHT22;8461;52.356;10.704;2023-03-14T14:20:13;4.10;99.90
13742;DHT22;8461;52.356;10.704;2023-03-14T14:22:42;4.20;99.90
13742;DHT22;8461;52.356;10.704;2023-03-14T14:25:13;4.20;99.90
13742;DHT22;8461;52.356;10.704;2023-03-14T14:27:42;4.20;99.90
13742;DHT22;8461;52.356;10.704;2023-03-14T14:32:43;4.20;99.90
13742;DHT22;8461;52.356;10.704;2023-03-14T14:35:21;4.10;99.90
13742;DHT22;8461;52.356;10.704;2023-03-14T14:37:48;4.10;99.90
13742;DHT22;8461;52.356;10.704;2023-03-14T14:40:21;4.10;99.90
13742;DHT22;8461;52.356;10.704;2023-03-14T14:42:47;4.10;99.90
13742;DHT22;8461;52.356;10.704;2023-03-14T14:45:18;4.00;99.90
13742;DHT22;8461;52.356;10.704;2023-03-14T14:48:04;4.00;99.90
13742;DHT22;8461;52.356;10.704;2023-03-14T14:52:59;4.10;99.90
13742;DHT22;8461;52.356;10.704;2023-03-14T14:55:31;4.10;99.90
13742;DHT22;8461;52.356;10.704;2023-03-14T14:57:57;4.10;99.90
13742;DHT22;8461;52.356;10.704;2023-03-14T15:00:26;4.10;99.90
13742;DHT22;8461;52.356;10.704;2023-03-14T15:02:54;4.10;99.90
13742;DHT22;8461;52.356;10.704;2023-03-14T15:05:25;4.20;99.90
13742;DHT22;8461;52.356;10.704;2023-03-14T15:07:51;4.20;99.90
13742;DHT22;8461;52.356;10.704;2023-03-14T15:10:19;4.20;99.90
13742;DHT22;8461;52.356;10.704;2023-03-14T15:12:45;4.30;99.90
13742;DHT22;8461;52.356;10.704;2023-03-14T15:15:13;4.40;99.90
13742;DHT22;8461;52.356;10.704;2023-03-14T15:17:39;4.50;99.90
13742;DHT22;8461;52.356;10.704;2023-03-14T15:20:06;4.50;99.90
13742;DHT22;8461;52.356;10.704;2023-03-14T15:22:31;4.50;99.90
13742;DHT22;8461;52.356;10.704;2023-03-14T15:24:57;4.60;99.90
13742;DHT22;8461;52.356;10.704;2023-03-14T15:27:23;4.60;99.90
13742;DHT22;8461;52.356;10.704;2023-03-14T15:29:48;4.70;99.90
13742;DHT22;8461;52.356;10.704;2023-03-14T15:32:16;4.80;99.90
13742;DHT22;8461;52.356;10.704;2023-03-14T15:34:42;4.80;99.90
13742;DHT22;8461;52.356;10.704;2023-03-14T15:37:12;4.80;99.90
13742;DHT22;8461;52.356;10.704;2023-03-14T15:39:39;4.90;99.90
13742;DHT22;8461;52.356;10.704;2023-03-14T15:42:05;4.90;99.90
13742;DHT22;8461;52.356;10.704;2023-03-14T15:44:30;4.90;99.90
13742;DHT22;8461;52.356;10.704;2023-03-14T15:46:56;4.90;99.90
13742;DHT22;8461;52.356;10.704;2023-03-14T15:49:22;4.90;99.90
13742;DHT22;8461;52.356;10.704;2023-03-14T15:51:47;4.90;99.90
13742;DHT22;8461;52.356;10.704;2023-03-14T15:54:14;4.90;99.90
13742;DHT22;8461;52.356;10.704;2023-03-14T15:56:39;4.90;99.90
13742;DHT22;8461;52.356;10.704;2023-03-14T15:59:05;4.90;99.90
13742;DHT22;8461;52.356;10.704;2023-03-14T16:01:30;4.90;99.90
13742;DHT22;8461;52.356;10.704;2023-03-14T16:03:56;4.80;99.90
13742;DHT22;8461;52.356;10.704;2023-03-14T16:06:21;4.90;99.90
13742;DHT22;8461;52.356;10.704;2023-03-14T16:08:47;4.80;99.90
13742;DHT22;8461;52.356;10.704;2023-03-14T16:11:14;4.80;99.90
13742;DHT22;8461;52.356;10.704;2023-03-14T16:13:40;4.80;99.90
13742;DHT22;8461;52.356;10.704;2023-03-14T16:16:07;4.80;99.90
13742;DHT22;8461;52.356;10.704;2023-03-14T16:18:35;4.80;99.90
13742;DHT22;8461;52.356;10.704;2023-03-14T16:21:03;4.90;99.90
13742;DHT22;8461;52.356;10.704;2023-03-14T16:23:31;4.90;99.90
13742;DHT22;8461;52.356;10.704;2023-03-14T16:25:56;4.90;99.90
13742;DHT22;8461;52.356;10.704;2023-03-14T16:28:23;5.00;99.90
13742;DHT22;8461;52.356;10.704;2023-03-14T16:30:49;5.00;99.90
13742;DHT22;8461;52.356;10.704;2023-03-14T16:33:15;5.10;99.90
13742;DHT22;8461;52.356;10.704;2023-03-14T16:35:41;5.00;99.90
13742;DHT22;8461;52.356;10.704;2023-03-14T16:38:07;5.10;99.90
13742;DHT22;8461;52.356;10.704;2023-03-14T16:40:33;5.00;99.90
13742;DHT22;8461;52.356;10.704;2023-03-14T16:42:58;4.90;99.90
13742;DHT22;8461;52.356;10.704;2023-03-14T16:45:24;4.80;99.90
13742;DHT22;8461;52.356;10.704;2023-03-14T16:47:50;4.70;99.90
13742;DHT22;8461;52.356;10.704;2023-03-14T16:50:15;4.70;99.90